Time;durP1;ratioP1;P1;durP2;ratioP2;P2;SDS_P1;SDS_P2;PMS_P1;PMS_P2;Temp;Humidity;BMP_temperature;BMP_pressure;BME280_temperature;BME280_humidity;BME280_pressure;Samples;Min_cycle;Max_cycle;Signal;HPM_P1;HPM_P2
2022/08/17 00:00:30;;;;;;;0.00;0.00;;;;;;;;;;5051515;28;20021;-53
2022/08/17 00:03:16;;;;;;;0.00;0.00;;;;;;;;;;5051799;28;20414;-55
2022/08/17 00:05:43;;;;;;;0.00;0.00;;;;;;;;;;5052816;28;20104;-55
2022/08/17 00:08:09;;;;;;;0.00;0.00;;;;;;;;;;5052581;28;20468;-54
2022/08/17 00:10:35;;;;;;;0.00;0.00;;;;;;;;;;5052809;28;20023;-53
2022/08/17 00:13:04;;;;;;;0.00;0.00;;;;;;;;;;5052116;28;20277;-56
2022/08/17 00:15:29;;;;;;;0.00;0.00;;;;;;;;;;5052680;28;20621;-55
2022/08/17 00:17:54;;;;;;;0.00;0.00;;;;;;;;;;5052054;28;20079;-54
2022/08/17 00:20:20;;;;;;;0.00;0.00;;;;;;;;;;5051687;28;20082;-54
2022/08/17 00:22:45;;;;;;;0.00;0.00;;;;;;;;;;5052490;28;20075;-54
2022/08/17 00:25:13;;;;;;;0.00;0.00;;;;;;;;;;5052070;28;20470;-55
2022/08/17 00:27:39;;;;;;;0.00;0.00;;;;;;;;;;5051206;28;20469;-55
2022/08/17 00:30:05;;;;;;;0.00;0.00;;;;;;;;;;5051892;28;20048;-54
2022/08/17 00:32:38;;;;;;;0.00;0.00;;;;;;;;;;5052062;28;20035;-54
2022/08/17 00:35:04;;;;;;;0.00;0.00;;;;;;;;;;5051800;28;20096;-54
2022/08/17 00:37:30;;;;;;;0.00;0.00;;;;;;;;;;5051867;28;20036;-55
2022/08/17 00:39:55;;;;;;;0.00;0.00;;;;;;;;;;5052854;28;20037;-55
2022/08/17 00:42:20;;;;;;;0.00;0.00;;;;;;;;;;5051754;28;20029;-53
2022/08/17 00:44:45;;;;;;;0.00;0.00;;;;;;;;;;5050691;28;20440;-51
2022/08/17 00:47:10;;;;;;;0.00;0.00;;;;;;;;;;5050346;28;20019;-56
2022/08/17 00:49:36;;;;;;;0.00;0.00;;;;;;;;;;5051647;28;20036;-53
2022/08/17 00:52:07;;;;;;;0.00;0.00;;;;;;;;;;5052116;28;20668;-53
2022/08/17 00:54:35;;;;;;;0.00;0.00;;;;;;;;;;5051933;28;20389;-54
2022/08/17 00:57:27;;;;;;;0.00;0.00;;;;;;;;;;5051675;28;20056;-56
2022/08/17 00:59:54;;;;;;;0.00;0.00;;;;;;;;;;5050657;28;20041;-54
2022/08/17 01:02:20;;;;;;;0.00;0.00;;;;;;;;;;5051163;28;20028;-52
2022/08/17 01:04:48;;;;;;;0.00;0.00;;;;;;;;;;5051513;28;20090;-55
2022/08/17 01:07:15;;;;;;;0.00;0.00;;;;;;;;;;5051162;28;20021;-54
2022/08/17 01:09:40;;;;;;;0.00;0.00;;;;;;;;;;5051194;28;20043;-53
2022/08/17 01:12:09;;;;;;;0.00;0.00;;;;;;;;;;5051223;28;20021;-53
2022/08/17 01:14:34;;;;;;;0.00;0.00;;;;;;;;;;5051459;28;20025;-54
2022/08/17 01:17:00;;;;;;;0.00;0.00;;;;;;;;;;5050316;28;20756;-53
2022/08/17 01:19:27;;;;;;;0.00;0.00;;;;;;;;;;5050739;28;20070;-55
2022/08/17 01:22:01;;;;;;;0.00;0.00;;;;;;;;;;5051193;28;20040;-54
2022/08/17 01:24:26;;;;;;;0.00;0.00;;;;;;;;;;5050739;28;20064;-55
2022/08/17 01:26:52;;;;;;;0.00;0.00;;;;;;;;;;5051039;28;20055;-56
2022/08/17 01:29:19;;;;;;;0.00;0.00;;;;;;;;;;5050784;28;20021;-55
2022/08/17 01:31:46;;;;;;;0.00;0.00;;;;;;;;;;5051437;28;20021;-52
2022/08/17 01:34:13;;;;;;;0.00;0.00;;;;;;;;;;5050606;28;20021;-55
2022/08/17 01:36:40;;;;;;;0.00;0.00;;;;;;;;;;5051114;28;20025;-54
2022/08/17 01:39:08;;;;;;;0.00;0.00;;;;;;;;;;5050690;28;20036;-54
2022/08/17 01:41:33;;;;;;;0.00;0.00;;;;;;;;;;5051154;28;20048;-54
2022/08/17 01:44:03;;;;;;;0.00;0.00;;;;;;;;;;5050443;28;20418;-52
2022/08/17 01:46:30;;;;;;;0.00;0.00;;;;;;;;;;5049293;28;20017;-52
2022/08/17 01:48:56;;;;;;;0.00;0.00;;;;;;;;;;5049652;28;20070;-52
2022/08/17 01:51:23;;;;;;;0.43;0.43;;;;;;;;;;5050442;28;20029;-54
2022/08/17 01:53:53;;;;;;;0.00;0.00;;;;;;;;;;5050669;28;20025;-54
2022/08/17 01:56:18;;;;;;;;;;;;;;;;;;5050286;28;20045;-55
2022/08/17 01:58:44;;;;;;;0.00;0.00;;;;;;;;;;5050492;28;19916;-51
2022/08/17 02:01:10;;;;;;;0.00;0.00;;;;;;;;;;5050098;28;20028;-51
2022/08/17 02:03:36;;;;;;;0.00;0.00;;;;;;;;;;5050227;28;20035;-52
2022/08/17 02:06:02;;;;;;;0.00;0.00;;;;;;;;;;5050624;28;20108;-51
2022/08/17 02:08:29;;;;;;;0.00;0.00;;;;;;;;;;5048760;28;20021;-55
2022/08/17 02:10:55;;;;;;;0.00;0.00;;;;;;;;;;5050628;28;20487;-55
2022/08/17 02:13:20;;;;;;;0.00;0.00;;;;;;;;;;5048728;28;20024;-53
2022/08/17 02:15:45;;;;;;;0.00;0.00;;;;;;;;;;5050016;28;20267;-54
2022/08/17 02:18:12;;;;;;;0.05;0.05;;;;;;;;;;5049971;28;20024;-55
2022/08/17 02:20:39;;;;;;;0.00;0.00;;;;;;;;;;5050177;28;20036;-51
2022/08/17 02:23:07;;;;;;;0.00;0.00;;;;;;;;;;5048380;28;20516;-53
2022/08/17 02:25:33;;;;;;;0.00;0.00;;;;;;;;;;5049987;28;20467;-55
2022/08/17 02:27:58;;;;;;;0.00;0.00;;;;;;;;;;5049934;28;20075;-53
2022/08/17 02:30:25;;;;;;;0.00;0.00;;;;;;;;;;5049492;28;20043;-56
2022/08/17 02:32:51;;;;;;;0.10;0.10;;;;;;;;;;5049638;28;20040;-53
2022/08/17 02:35:16;;;;;;;0.00;0.00;;;;;;;;;;5049452;28;20070;-53
2022/08/17 02:37:41;;;;;;;0.00;0.00;;;;;;;;;;5049715;28;20021;-55
2022/08/17 02:40:07;;;;;;;0.00;0.00;;;;;;;;;;5049629;28;20028;-54
2022/08/17 02:42:34;;;;;;;0.00;0.00;;;;;;;;;;5048615;28;20609;-55
2022/08/17 02:44:59;;;;;;;0.00;0.00;;;;;;;;;;5049668;28;20351;-55
2022/08/17 02:47:25;;;;;;;0.00;0.00;;;;;;;;;;5049355;28;20048;-55
2022/08/17 02:49:50;;;;;;;0.00;0.00;;;;;;;;;;5049467;28;20025;-56
2022/08/17 02:52:16;;;;;;;0.00;0.00;;;;;;;;;;5049560;28;20021;-52
2022/08/17 02:54:41;;;;;;;0.00;0.00;;;;;;;;;;5049503;28;20044;-53
2022/08/17 02:57:06;;;;;;;0.00;0.00;;;;;;;;;;5049550;28;20052;-51
2022/08/17 02:59:31;;;;;;;0.00;0.00;;;;;;;;;;5049103;28;20414;-53
2022/08/17 03:01:57;;;;;;;0.00;0.00;;;;;;;;;;5049797;28;20413;-54
2022/08/17 03:04:22;;;;;;;0.00;0.00;;;;;;;;;;5049075;28;20382;-54
2022/08/17 03:06:47;;;;;;;0.00;0.00;;;;;;;;;;5049624;28;20443;-53
2022/08/17 03:09:12;;;;;;;0.00;0.00;;;;;;;;;;5048749;28;20341;-54
2022/08/17 03:11:38;;;;;;;0.00;0.00;;;;;;;;;;5048305;28;20259;-53
2022/08/17 03:14:03;;;;;;;0.00;0.00;;;;;;;;;;5049302;28;20021;-53
2022/08/17 03:16:28;;;;;;;0.00;0.00;;;;;;;;;;5048923;28;20025;-53
2022/08/17 03:18:53;;;;;;;0.20;0.20;;;;;;;;;;5048973;28;20020;-51
2022/08/17 03:21:19;;;;;;;0.00;0.00;;;;;;;;;;5048783;28;20099;-54
2022/08/17 03:23:44;;;;;;;0.00;0.00;;;;;;;;;;5049345;28;20036;-53
2022/08/17 03:26:10;;;;;;;0.00;0.00;;;;;;;;;;5048790;28;20041;-54
2022/08/17 03:28:36;;;;;;;0.00;0.00;;;;;;;;;;5049418;28;20025;-53
2022/08/17 03:31:01;;;;;;;0.00;0.00;;;;;;;;;;5049179;28;20021;-55
2022/08/17 03:33:27;;;;;;;0.00;0.00;;;;;;;;;;5048877;28;20527;-54
2022/08/17 03:35:52;;;;;;;0.00;0.00;;;;;;;;;;5049349;28;20331;-53
2022/08/17 03:38:18;;;;;;;0.00;0.00;;;;;;;;;;5048631;28;20083;-56
2022/08/17 03:40:45;;;;;;;0.00;0.00;;;;;;;;;;5048232;28;20485;-56
2022/08/17 03:43:10;;;;;;;0.00;0.00;;;;;;;;;;5048759;28;20743;-52
2022/08/17 03:56:42;;;;;;;0.00;0.00;;;;;;;;;;5047529;28;20047;-53
2022/08/17 03:59:15;;;;;;;0.00;0.00;;;;;;;;;;5049098;28;20018;-52
2022/08/17 04:01:40;;;;;;;0.00;0.00;;;;;;;;;;5049381;28;20466;-53
2022/08/17 04:04:06;;;;;;;0.00;0.00;;;;;;;;;;5047512;28;20029;-54
2022/08/17 04:06:31;;;;;;;0.00;0.00;;;;;;;;;;5048215;28;20024;-52
2022/08/17 04:08:57;;;;;;;0.00;0.00;;;;;;;;;;5047699;28;20462;-54
2022/08/17 04:11:22;;;;;;;0.00;0.00;;;;;;;;;;5048612;28;20118;-53
2022/08/17 04:13:47;;;;;;;0.00;0.00;;;;;;;;;;5048688;28;20479;-56
2022/08/17 04:16:12;;;;;;;0.00;0.00;;;;;;;;;;5048462;28;20505;-55
2022/08/17 04:18:37;;;;;;;0.00;0.00;;;;;;;;;;5049162;28;20028;-54
2022/08/17 04:21:03;;;;;;;0.00;0.00;;;;;;;;;;5052860;28;20356;-53
2022/08/17 04:23:32;;;;;;;0.00;0.00;;;;;;;;;;5052085;28;20029;-55
2022/08/17 04:25:57;;;;;;;0.00;0.00;;;;;;;;;;5052708;28;20579;-55
2022/08/17 04:28:22;;;;;;;0.00;0.00;;;;;;;;;;5052028;28;20029;-52
2022/08/17 04:30:48;;;;;;;0.00;0.00;;;;;;;;;;5051074;28;20027;-55
2022/08/17 04:33:14;;;;;;;0.00;0.00;;;;;;;;;;5051950;28;20256;-54
2022/08/17 04:35:41;;;;;;;0.52;0.52;;;;;;;;;;5052815;28;20067;-54
2022/08/17 04:38:08;;;;;;;0.00;0.00;;;;;;;;;;5051435;28;20033;-55
2022/08/17 04:43:19;;;;;;;0.20;0.20;;;;;;;;;;5052136;28;20040;-56
2022/08/17 04:45:54;;;;;;;0.00;0.00;;;;;;;;;;5052449;28;20021;-56
2022/08/17 04:48:20;;;;;;;0.00;0.00;;;;;;;;;;5050892;28;20104;-55
2022/08/17 04:50:47;;;;;;;0.00;0.00;;;;;;;;;;5052028;28;20100;-55
2022/08/17 04:53:12;;;;;;;0.00;0.00;;;;;;;;;;5051903;28;20067;-55
2022/08/17 04:55:38;;;;;;;0.28;0.28;;;;;;;;;;5051633;28;20126;-56
2022/08/17 04:58:04;;;;;;;0.00;0.00;;;;;;;;;;5051711;28;20454;-53
2022/08/17 05:00:29;;;;;;;0.10;0.10;;;;;;;;;;5051867;28;20070;-56
2022/08/17 05:02:54;;;;;;;0.00;0.00;;;;;;;;;;5050358;28;20488;-54
2022/08/17 05:05:21;;;;;;;0.10;0.10;;;;;;;;;;5051418;28;20021;-55
2022/08/17 05:07:47;;;;;;;0.00;0.00;;;;;;;;;;5050237;28;20028;-56
2022/08/17 05:10:12;;;;;;;0.00;0.00;;;;;;;;;;5052001;28;20036;-54
2022/08/17 05:12:37;;;;;;;0.38;0.38;;;;;;;;;;5051176;28;20108;-52
2022/08/17 05:15:03;;;;;;;0.00;0.00;;;;;;;;;;5051449;28;20029;-53
2022/08/17 05:17:28;;;;;;;0.00;0.00;;;;;;;;;;5051628;28;20032;-54
2022/08/17 05:19:53;;;;;;;0.00;0.00;;;;;;;;;;5051463;28;20025;-54
2022/08/17 05:22:18;;;;;;;0.00;0.00;;;;;;;;;;5050820;28;20255;-54
2022/08/17 05:24:44;;;;;;;0.00;0.00;;;;;;;;;;5051211;28;20024;-55
2022/08/17 05:27:09;;;;;;;0.00;0.00;;;;;;;;;;5051379;28;20260;-51
2022/08/17 05:29:35;;;;;;;0.08;0.08;;;;;;;;;;5051169;28;20043;-56
2022/08/17 05:32:10;;;;;;;0.00;0.00;;;;;;;;;;5050691;28;20689;-54
2022/08/17 05:34:35;;;;;;;0.28;0.08;;;;;;;;;;5050940;28;20033;-55
2022/08/17 05:37:00;;;;;;;0.00;0.00;;;;;;;;;;5050022;28;20407;-56
2022/08/17 05:39:26;;;;;;;0.00;0.00;;;;;;;;;;5050722;28;20082;-55
2022/08/17 05:41:51;;;;;;;0.00;0.00;;;;;;;;;;5051177;28;20097;-56
2022/08/17 05:44:16;;;;;;;0.00;0.00;;;;;;;;;;5050312;28;20083;-57
2022/08/17 05:46:44;;;;;;;0.00;0.00;;;;;;;;;;5050977;28;20009;-55
2022/08/17 05:49:11;;;;;;;0.00;0.00;;;;;;;;;;5051161;28;20413;-57
2022/08/17 05:51:51;;;;;;;0.00;0.00;;;;;;;;;;5050290;28;20028;-53
2022/08/17 05:54:26;;;;;;;0.00;0.00;;;;;;;;;;5048906;28;20076;-56
2022/08/17 05:57:09;;;;;;;0.00;0.00;;;;;;;;;;5050623;28;20525;-56
2022/08/17 05:59:50;;;;;;;0.00;0.00;;;;;;;;;;5049831;28;20024;-56
2022/08/17 06:02:21;;;;;;;0.52;0.20;;;;;;;;;;5050838;28;20060;-57
2022/08/17 06:04:52;;;;;;;1.35;0.45;;;;;;;;;;5049587;28;20119;-55
2022/08/17 06:07:23;;;;;;;0.00;0.00;;;;;;;;;;5050349;28;20032;-55
2022/08/17 06:09:52;;;;;;;0.00;0.00;;;;;;;;;;5050555;28;20017;-57
2022/08/17 06:12:41;;;;;;;0.00;0.00;;;;;;;;;;5050310;28;20021;-57
2022/08/17 06:15:06;;;;;;;0.00;0.00;;;;;;;;;;5050580;28;20104;-58
2022/08/17 06:17:32;;;;;;;0.55;0.50;;;;;;;;;;5049614;28;20028;-55
2022/08/17 06:20:06;;;;;;;0.40;0.40;;;;;;;;;;5050072;28;20033;-56
2022/08/17 06:22:33;;;;;;;0.00;0.00;;;;;;;;;;5049634;28;20017;-56
2022/08/17 06:25:14;;;;;;;0.00;0.00;;;;;;;;;;5050221;28;20096;-57
2022/08/17 06:27:48;;;;;;;0.00;0.00;;;;;;;;;;5049699;28;20021;-55
2022/08/17 06:30:19;;;;;;;0.00;0.00;;;;;;;;;;5049909;28;20024;-57
2022/08/17 06:32:45;;;;;;;0.30;0.30;;;;;;;;;;5048871;28;20039;-56
2022/08/17 06:35:13;;;;;;;0.00;0.00;;;;;;;;;;5049292;28;20133;-57
2022/08/17 06:37:38;;;;;;;0.00;0.00;;;;;;;;;;5049386;28;20100;-54
2022/08/17 06:40:06;;;;;;;0.00;0.00;;;;;;;;;;5049671;28;20441;-57
2022/08/17 06:42:39;;;;;;;0.00;0.00;;;;;;;;;;5049311;28;20262;-58
2022/08/17 06:45:16;;;;;;;0.00;0.00;;;;;;;;;;5049570;28;20454;-56
2022/08/17 06:47:41;;;;;;;0.00;0.00;;;;;;;;;;5049398;28;20013;-56
2022/08/17 06:50:14;;;;;;;0.00;0.00;;;;;;;;;;5049766;28;20362;-56
2022/08/17 06:52:59;;;;;;;1.45;1.45;;;;;;;;;;5049134;28;20251;-57
2022/08/17 06:55:34;;;;;;;0.00;0.00;;;;;;;;;;5048604;28;20478;-57
2022/08/17 06:58:02;;;;;;;0.00;0.00;;;;;;;;;;5049619;28;20013;-56
2022/08/17 07:00:35;;;;;;;0.00;0.00;;;;;;;;;;5049154;28;20037;-56
2022/08/17 07:03:06;;;;;;;0.00;0.00;;;;;;;;;;5048726;28;20047;-57
2022/08/17 07:05:40;;;;;;;0.28;0.28;;;;;;;;;;5048751;28;20017;-56
2022/08/17 07:08:10;;;;;;;0.00;0.00;;;;;;;;;;5049413;28;20116;-55
2022/08/17 07:10:41;;;;;;;0.00;0.00;;;;;;;;;;5048774;28;20024;-55
2022/08/17 07:13:19;;;;;;;0.00;0.00;;;;;;;;;;5049215;28;20032;-57
2022/08/17 07:15:46;;;;;;;0.00;0.00;;;;;;;;;;5048971;28;20017;-57
2022/08/17 07:18:11;;;;;;;0.03;0.03;;;;;;;;;;5049333;28;20358;-56
2022/08/17 07:20:39;;;;;;;0.00;0.00;;;;;;;;;;5048957;28;20032;-57
2022/08/17 07:23:13;;;;;;;0.20;0.20;;;;;;;;;;5049273;28;20013;-57
2022/08/17 07:25:38;;;;;;;0.00;0.00;;;;;;;;;;5048523;28;20013;-57
2022/08/17 07:28:06;;;;;;;0.00;0.00;;;;;;;;;;5049230;28;20373;-55
2022/08/17 07:30:37;;;;;;;0.00;0.00;;;;;;;;;;5047944;28;20009;-56
2022/08/17 07:33:10;;;;;;;0.00;0.00;;;;;;;;;;5048750;28;20033;-56
2022/08/17 07:35:38;;;;;;;0.00;0.00;;;;;;;;;;5048992;28;20028;-58
2022/08/17 07:38:16;;;;;;;0.00;0.00;;;;;;;;;;5049459;28;20037;-56
2022/08/17 07:41:03;;;;;;;1.13;1.13;;;;;;;;;;5048659;28;20032;-57
2022/08/17 07:43:38;;;;;;;0.00;0.00;;;;;;;;;;5048634;28;20409;-57
2022/08/17 07:49:06;;;;;;;0.00;0.00;;;;;;;;;;5049128;28;20028;-57
2022/08/17 07:51:31;;;;;;;0.00;0.00;;;;;;;;;;5048513;28;20020;-57
2022/08/17 07:54:01;;;;;;;0.00;0.00;;;;;;;;;;5049875;28;20029;-56
2022/08/17 07:56:46;;;;;;;0.00;0.00;;;;;;;;;;5052430;28;20307;-57
2022/08/17 07:59:21;;;;;;;0.00;0.00;;;;;;;;;;5052019;28;20033;-57
2022/08/17 08:01:55;;;;;;;0.00;0.00;;;;;;;;;;5050794;28;20645;-56
2022/08/17 08:04:26;;;;;;;0.05;0.05;;;;;;;;;;5053000;28;20040;-58
2022/08/17 08:06:53;;;;;;;0.00;0.00;;;;;;;;;;5052538;28;20025;-57
2022/08/17 08:09:33;;;;;;;0.00;0.00;;;;;;;;;;5052845;28;20029;-55
2022/08/17 08:11:59;;;;;;;0.00;0.00;;;;;;;;;;5052270;28;20462;-56
2022/08/17 08:14:29;;;;;;;0.00;0.00;;;;;;;;;;5051911;28;20029;-54
2022/08/17 08:16:59;;;;;;;0.00;0.00;;;;;;;;;;5052597;28;20029;-57
2022/08/17 08:19:25;;;;;;;0.00;0.00;;;;;;;;;;5051684;28;20020;-57
2022/08/17 08:21:57;;;;;;;0.00;0.00;;;;;;;;;;5052403;28;20031;-57
2022/08/17 08:24:23;;;;;;;0.00;0.00;;;;;;;;;;5052152;28;20069;-57
2022/08/17 08:26:55;;;;;;;0.00;0.00;;;;;;;;;;5052241;28;20060;-58
2022/08/17 08:29:33;;;;;;;0.00;0.00;;;;;;;;;;5051088;28;20267;-57
2022/08/17 08:32:04;;;;;;;0.00;0.00;;;;;;;;;;5051983;28;20021;-57
2022/08/17 08:34:36;;;;;;;0.10;0.10;;;;;;;;;;5051594;28;20024;-56
2022/08/17 08:37:05;;;;;;;0.00;0.00;;;;;;;;;;5050808;28;20021;-57
2022/08/17 08:39:56;;;;;;;0.00;0.00;;;;;;;;;;5051809;28;20485;-56
2022/08/17 08:42:22;;;;;;;0.00;0.00;;;;;;;;;;5043197;28;20029;-57
2022/08/17 08:44:58;;;;;;;9.45;4.38;;;;;;;;;;5051704;28;20417;-53
2022/08/17 08:47:24;;;;;;;0.00;0.00;;;;;;;;;;5052010;28;20013;-57
2022/08/17 08:49:58;;;;;;;0.00;0.00;;;;;;;;;;5051686;28;20066;-54
2022/08/17 08:52:40;;;;;;;0.00;0.00;;;;;;;;;;5050742;28;20270;-55
2022/08/17 08:55:08;;;;;;;0.00;0.00;;;;;;;;;;5051217;28;20112;-58
2022/08/17 08:57:37;;;;;;;0.00;0.00;;;;;;;;;;5050381;28;20025;-57
2022/08/17 09:00:17;;;;;;;0.00;0.00;;;;;;;;;;5051854;28;20021;-55
2022/08/17 09:02:45;;;;;;;0.45;0.45;;;;;;;;;;5051535;28;20063;-56
2022/08/17 09:05:11;;;;;;;0.00;0.00;;;;;;;;;;5050981;28;20036;-55
2022/08/17 09:07:37;;;;;;;0.00;0.00;;;;;;;;;;5050905;28;20017;-57
2022/08/17 09:10:12;;;;;;;0.00;0.00;;;;;;;;;;5051483;28;20024;-54
2022/08/17 09:12:43;;;;;;;0.00;0.00;;;;;;;;;;5051021;28;20029;-56
2022/08/17 09:15:12;;;;;;;0.00;0.00;;;;;;;;;;5051458;28;20404;-57
2022/08/17 09:17:46;;;;;;;0.10;0.10;;;;;;;;;;5050903;28;20021;-57
2022/08/17 09:20:24;;;;;;;0.00;0.00;;;;;;;;;;5051428;28;20024;-56
2022/08/17 09:22:51;;;;;;;0.00;0.00;;;;;;;;;;5051146;28;20430;-57
2022/08/17 09:25:27;;;;;;;0.00;0.00;;;;;;;;;;5049212;28;20024;-56
2022/08/17 09:27:57;;;;;;;0.00;0.00;;;;;;;;;;5050786;28;20531;-57
2022/08/17 09:30:23;;;;;;;0.00;0.00;;;;;;;;;;5051316;28;20040;-57
2022/08/17 09:32:54;;;;;;;0.00;0.00;;;;;;;;;;5050996;28;20450;-56
2022/08/17 09:35:33;;;;;;;0.00;0.00;;;;;;;;;;5051274;28;20024;-58
2022/08/17 09:38:02;;;;;;;0.00;0.00;;;;;;;;;;5051324;28;20095;-56
2022/08/17 09:40:39;;;;;;;0.15;0.15;;;;;;;;;;5050845;28;20028;-57
2022/08/17 09:43:23;;;;;;;0.00;0.00;;;;;;;;;;5050994;28;20386;-57
2022/08/17 09:45:51;;;;;;;0.77;0.77;;;;;;;;;;5050961;28;20096;-56
2022/08/17 09:48:17;;;;;;;0.00;0.00;;;;;;;;;;5051109;28;20070;-57
2022/08/17 09:50:54;;;;;;;0.30;0.20;;;;;;;;;;5050336;28;20021;-56
2022/08/17 09:53:20;;;;;;;0.00;0.00;;;;;;;;;;5051026;28;20017;-57
2022/08/17 09:56:00;;;;;;;0.00;0.00;;;;;;;;;;5049344;28;20505;-54
2022/08/17 09:58:37;;;;;;;0.00;0.00;;;;;;;;;;5050754;28;20535;-56
2022/08/17 10:01:10;;;;;;;0.00;0.00;;;;;;;;;;5050890;28;20024;-56
2022/08/17 10:03:41;;;;;;;0.00;0.00;;;;;;;;;;5049089;28;20108;-57
2022/08/17 10:06:18;;;;;;;0.00;0.00;;;;;;;;;;5050254;28;20057;-55
2022/08/17 10:09:05;;;;;;;0.00;0.00;;;;;;;;;;5046751;28;20036;-56
2022/08/17 10:14:51;;;;;;;0.00;0.00;;;;;;;;;;5049930;28;20031;-57
2022/08/17 10:17:31;;;;;;;0.00;0.00;;;;;;;;;;5049990;28;20023;-56
2022/08/17 10:20:03;;;;;;;0.00;0.00;;;;;;;;;;5048393;28;20100;-57
2022/08/17 10:28:04;;;;;;;0.00;0.00;;;;;;;;;;5050406;28;20040;-56
2022/08/17 10:30:29;;;;;;;;;;;;;;;;;;5049942;28;20029;-57
2022/08/17 10:32:58;;;;;;;0.00;0.00;;;;;;;;;;5049964;28;19916;-56
2022/08/17 10:35:32;;;;;;;0.38;0.38;;;;;;;;;;5049965;28;20016;-58
2022/08/17 10:37:58;;;;;;;0.47;0.47;;;;;;;;;;5049769;28;20037;-57
2022/08/17 10:40:26;;;;;;;0.03;0.03;;;;;;;;;;5048257;28;20039;-57
2022/08/17 10:43:18;;;;;;;0.93;0.93;;;;;;;;;;5049282;28;20478;-56
2022/08/17 10:46:06;;;;;;;0.00;0.00;;;;;;;;;;5049256;28;20029;-58
2022/08/17 10:48:35;;;;;;;0.00;0.00;;;;;;;;;;5046094;28;20044;-58
2022/08/17 10:51:06;;;;;;;0.40;0.40;;;;;;;;;;5049846;28;20070;-58
2022/08/17 10:53:31;;;;;;;3.72;1.00;;;;;;;;;;5048469;28;20051;-58
2022/08/17 10:56:12;;;;;;;0.23;0.23;;;;;;;;;;5049506;28;20076;-58
2022/08/17 10:58:48;;;;;;;0.00;0.00;;;;;;;;;;5049427;28;20255;-58
2022/08/17 11:01:13;;;;;;;0.00;0.00;;;;;;;;;;5049329;28;20016;-56
2022/08/17 11:03:53;;;;;;;0.00;0.00;;;;;;;;;;5048987;28;20517;-57
2022/08/17 11:06:32;;;;;;;0.00;0.00;;;;;;;;;;5048665;28;20021;-57
2022/08/17 11:09:04;;;;;;;0.35;0.35;;;;;;;;;;5049752;28;20765;-56
2022/08/17 11:11:44;;;;;;;0.00;0.00;;;;;;;;;;5049486;28;20052;-57
2022/08/17 11:14:27;;;;;;;0.80;0.80;;;;;;;;;;5049340;28;20021;-55
2022/08/17 11:17:01;;;;;;;0.00;0.00;;;;;;;;;;5049054;28;20381;-55
2022/08/17 11:19:46;;;;;;;0.65;0.65;;;;;;;;;;5049478;28;20106;-56
2022/08/17 11:22:11;;;;;;;0.88;0.68;;;;;;;;;;5047298;28;20040;-56
2022/08/17 11:24:41;;;;;;;0.00;0.00;;;;;;;;;;5047793;28;20055;-57
2022/08/17 11:27:21;;;;;;;0.82;0.82;;;;;;;;;;5049088;28;20128;-58
2022/08/17 11:29:51;;;;;;;0.00;0.00;;;;;;;;;;5048583;28;20028;-56
2022/08/17 11:32:36;;;;;;;0.20;0.20;;;;;;;;;;5048657;28;20041;-58
2022/08/17 11:35:19;;;;;;;0.20;0.20;;;;;;;;;;5047694;28;20056;-56
2022/08/17 11:37:44;;;;;;;0.40;0.40;;;;;;;;;;5048146;28;20421;-57
2022/08/17 11:40:16;;;;;;;0.00;0.00;;;;;;;;;;5047227;28;20116;-57
2022/08/17 11:42:41;;;;;;;0.20;0.20;;;;;;;;;;5048184;28;20478;-57
2022/08/17 11:45:09;;;;;;;1.03;1.03;;;;;;;;;;5049113;28;20024;-57
2022/08/17 11:53:37;;;;;;;0.65;0.30;;;;;;;;;;5047375;28;20032;-57
2022/08/17 11:56:02;;;;;;;0.47;0.47;;;;;;;;;;5047808;28;20080;-58
2022/08/17 11:58:28;;;;;;;2.08;1.25;;;;;;;;;;5048806;28;20053;-57
2022/08/17 12:00:55;;;;;;;0.00;0.00;;;;;;;;;;5046699;28;20021;-58
2022/08/17 12:03:23;;;;;;;0.28;0.28;;;;;;;;;;5047557;28;20755;-57
2022/08/17 12:05:52;;;;;;;0.10;0.10;;;;;;;;;;5047140;28;20024;-57
2022/08/17 12:08:21;;;;;;;0.55;0.55;;;;;;;;;;5046638;28;20560;-57
2022/08/17 12:10:53;;;;;;;0.13;0.13;;;;;;;;;;5047151;28;20371;-57
2022/08/17 12:13:18;;;;;;;0.32;0.32;;;;;;;;;;5047016;28;20413;-56
2022/08/17 12:15:48;;;;;;;1.00;1.00;;;;;;;;;;5045692;28;20017;-56
2022/08/17 12:18:27;;;;;;;0.40;0.40;;;;;;;;;;5046062;28;20025;-56
2022/08/17 12:21:02;;;;;;;1.98;1.38;;;;;;;;;;5047056;28;20017;-58
2022/08/17 12:23:34;;;;;;;0.80;0.80;;;;;;;;;;5047360;28;20034;-58
2022/08/17 12:26:04;;;;;;;0.17;0.17;;;;;;;;;;5046411;28;20017;-55
2022/08/17 12:28:34;;;;;;;0.00;0.00;;;;;;;;;;5046653;28;20474;-58
2022/08/17 12:31:02;;;;;;;0.40;0.40;;;;;;;;;;5047595;28;20024;-55
2022/08/17 12:33:27;;;;;;;0.73;0.32;;;;;;;;;;5048193;28;20025;-55
2022/08/17 12:36:03;;;;;;;0.50;0.50;;;;;;;;;;5049549;28;20397;-58
2022/08/17 12:38:34;;;;;;;5.38;0.95;;;;;;;;;;5048732;28;20021;-58
2022/08/17 12:41:24;;;;;;;1.27;1.05;;;;;;;;;;5053074;28;20023;-59
2022/08/17 12:44:00;;;;;;;0.00;0.00;;;;;;;;;;5051396;28;20029;-58
2022/08/17 12:46:26;;;;;;;0.00;0.00;;;;;;;;;;5052385;28;20159;-58
2022/08/17 12:48:51;;;;;;;0.00;0.00;;;;;;;;;;5054041;28;20092;-58
2022/08/17 12:51:16;;;;;;;0.55;0.55;;;;;;;;;;5053881;28;20351;-57
2022/08/17 12:53:48;;;;;;;0.28;0.20;;;;;;;;;;5053797;28;20032;-57
2022/08/17 12:56:14;;;;;;;0.63;0.63;;;;;;;;;;5051025;28;20045;-58
2022/08/17 12:58:46;;;;;;;0.00;0.00;;;;;;;;;;5054363;28;20476;-58
2022/08/17 13:01:15;;;;;;;0.00;0.00;;;;;;;;;;5054644;28;20108;-57
2022/08/17 13:03:48;;;;;;;0.00;0.00;;;;;;;;;;5053642;28;20025;-58
2022/08/17 13:06:25;;;;;;;0.00;0.00;;;;;;;;;;5051570;28;20108;-58
2022/08/17 13:08:50;;;;;;;2.13;2.03;;;;;;;;;;5054171;28;20029;-58
2022/08/17 13:11:17;;;;;;;0.20;0.20;;;;;;;;;;5053774;28;20013;-57
2022/08/17 13:13:50;;;;;;;0.77;0.77;;;;;;;;;;5054055;28;20025;-58
2022/08/17 13:16:16;;;;;;;0.17;0.17;;;;;;;;;;5049346;28;20029;-57
2022/08/17 13:18:43;;;;;;;0.17;0.17;;;;;;;;;;5052354;28;20466;-58
2022/08/17 13:21:18;;;;;;;0.30;0.30;;;;;;;;;;5053975;28;20078;-58
2022/08/17 13:24:15;;;;;;;0.75;0.75;;;;;;;;;;5053217;28;20021;-57
2022/08/17 13:26:40;;;;;;;0.10;0.10;;;;;;;;;;5053135;28;20047;-59
2022/08/17 13:29:07;;;;;;;0.87;0.87;;;;;;;;;;5053532;28;20021;-58
2022/08/17 13:31:35;;;;;;;0.00;0.00;;;;;;;;;;5053282;28;20664;-57
2022/08/17 13:34:12;;;;;;;1.02;0.95;;;;;;;;;;5053718;28;20036;-58
2022/08/17 13:36:37;;;;;;;0.25;0.25;;;;;;;;;;5052929;28;20055;-59
2022/08/17 13:39:22;;;;;;;0.00;0.00;;;;;;;;;;5053100;28;20060;-59
2022/08/17 13:41:48;;;;;;;0.00;0.00;;;;;;;;;;5051922;28;20025;-59
2022/08/17 13:44:31;;;;;;;0.00;0.00;;;;;;;;;;5053244;28;20017;-57
2022/08/17 13:46:58;;;;;;;0.00;0.00;;;;;;;;;;5052914;28;20017;-59
2022/08/17 13:49:24;;;;;;;0.00;0.00;;;;;;;;;;5050131;28;20013;-59
2022/08/17 13:51:49;;;;;;;0.00;0.00;;;;;;;;;;5047910;28;20031;-57
2022/08/17 13:54:17;;;;;;;0.70;0.70;;;;;;;;;;5047418;28;20744;-58
2022/08/17 13:56:53;;;;;;;0.00;0.00;;;;;;;;;;5049742;28;20052;-57
2022/08/17 13:59:47;;;;;;;0.10;0.10;;;;;;;;;;5049926;28;20033;-57
2022/08/17 14:02:14;;;;;;;0.10;0.10;;;;;;;;;;5049289;28;20029;-57
2022/08/17 14:04:40;;;;;;;0.03;0.03;;;;;;;;;;5050415;28;20021;-57
2022/08/17 14:07:11;;;;;;;0.03;0.03;;;;;;;;;;5049802;28;20478;-57
2022/08/17 14:09:57;;;;;;;0.10;0.10;;;;;;;;;;5049055;28;20024;-58
2022/08/17 14:12:24;;;;;;;0.20;0.20;;;;;;;;;;5051147;28;20112;-57
2022/08/17 14:14:49;;;;;;;0.45;0.45;;;;;;;;;;5048731;28;20139;-57
2022/08/17 14:17:15;;;;;;;0.08;0.08;;;;;;;;;;5048148;28;20021;-57
2022/08/17 14:19:40;;;;;;;3.40;1.63;;;;;;;;;;5048591;28;20021;-56
2022/08/17 14:22:07;;;;;;;0.00;0.00;;;;;;;;;;5049864;28;20429;-57
2022/08/17 14:24:39;;;;;;;0.00;0.00;;;;;;;;;;5048864;28;20103;-57
2022/08/17 14:27:04;;;;;;;0.00;0.00;;;;;;;;;;5049920;28;20039;-57
2022/08/17 14:29:31;;;;;;;0.38;0.38;;;;;;;;;;5050430;28;20025;-58
2022/08/17 14:31:58;;;;;;;0.00;0.00;;;;;;;;;;5049933;28;20029;-59
2022/08/17 14:34:24;;;;;;;0.60;0.60;;;;;;;;;;5049602;28;20025;-57
2022/08/17 14:36:49;;;;;;;0.93;0.93;;;;;;;;;;5049070;28;20171;-57
2022/08/17 14:39:15;;;;;;;0.08;0.08;;;;;;;;;;5050021;28;20167;-57
2022/08/17 14:41:41;;;;;;;0.17;0.17;;;;;;;;;;5049858;28;20557;-57
2022/08/17 14:44:11;;;;;;;1.25;0.80;;;;;;;;;;5049013;28;20092;-57
2022/08/17 14:46:36;;;;;;;0.00;0.00;;;;;;;;;;5048213;28;20130;-58
2022/08/17 14:49:01;;;;;;;0.20;0.20;;;;;;;;;;5049857;28;20096;-57
2022/08/17 14:51:28;;;;;;;0.37;0.37;;;;;;;;;;5050028;28;20035;-58
2022/08/17 14:53:53;;;;;;;0.85;0.85;;;;;;;;;;5049219;28;20328;-58
2022/08/17 14:56:18;;;;;;;0.60;0.60;;;;;;;;;;5049580;28;20619;-59
2022/08/17 14:58:43;;;;;;;0.60;0.60;;;;;;;;;;5048775;28;20029;-58
2022/08/17 15:01:09;;;;;;;0.52;0.52;;;;;;;;;;5049673;28;20616;-58
2022/08/17 15:03:35;;;;;;;0.00;0.00;;;;;;;;;;5048011;28;20086;-58
2022/08/17 15:06:01;;;;;;;0.30;0.30;;;;;;;;;;5048757;28;20033;-58
2022/08/17 15:08:27;;;;;;;0.30;0.30;;;;;;;;;;5049311;28;20021;-58
2022/08/17 15:10:52;;;;;;;0.03;0.03;;;;;;;;;;5048888;28;20092;-57
2022/08/17 15:13:20;;;;;;;18.25;16.65;;;;;;;;;;5048129;28;20024;-57
2022/08/17 15:15:46;;;;;;;1.27;1.27;;;;;;;;;;5049369;28;20462;-58
2022/08/17 15:18:11;;;;;;;0.17;0.17;;;;;;;;;;5049489;28;20021;-57
2022/08/17 15:20:37;;;;;;;0.85;0.85;;;;;;;;;;5049076;28;20089;-58
2022/08/17 15:23:02;;;;;;;0.20;0.10;;;;;;;;;;5049221;28;20036;-59
2022/08/17 15:25:30;;;;;;;0.32;0.32;;;;;;;;;;5049385;28;20590;-56
2022/08/17 15:27:56;;;;;;;0.38;0.38;;;;;;;;;;5049083;28;20037;-58